Sunday, August 28, 2016
22:33 UTC
  |  Log In   |  Register Free
Airport Search:

Faribault Municipal Airport
(KFBL)

Faribault Municipal Airport Diagram
No Airport Diagram Available

FAA data valid effective Jul 21 2016 - Sep 15 2016 (unless otherwise noted).

 
 
 
 
 
 
 
 
 
 
 
 
 
 
Summary: Faribault Municipal (FBL)

Weather Summary


METAR for FBL is not available. Closest METAR is for
METAR

METAR KFBL 282214Z 17007KT 10SM SCT035 29/20 A3011 RMK AO2 PWINO

METAR KFBL 282154Z 18005KT 10SM SCT035 28/21 A3011 RMK AO2 PWINO

METAR KFBL 282134Z 20005KT 10SM SCT035 29/20 A3011 RMK AO2 PWINO

METAR KFBL 282114Z 13006KT 10SM SCT035 29/21 A3012 RMK AO2 PWINO

METAR KFBL 282054Z 17008KT 10SM BKN035 29/20 A3012 RMK AO2 PWINO

METAR KFBL 282034Z 15010KT 7SM SCT035 29/21 A3012 RMK AO2 PWINO

METAR KFBL 282014Z 18009KT 162V222 10SM SCT033 29/20 A3013 RMK AO2 PWINO

METAR KFBL 281954Z 14008KT 122V182 10SM BKN033 28/21 A3013 RMK AO2 PWINO

METAR KFBL 281934Z 15005KT 10SM SCT033 SCT100 28/21 A3014 RMK AO2 PWINO

METAR KACQ 282214Z 00000KT 10SM SCT038 28/21 A3011 RMK AO2

METAR KFCM 282153Z 16011KT 10SM SCT036 29/20 A3008 RMK AO2 SLP182 T02940200

METAR KLVN 282212Z 17006KT 10SM CLR 27/20 A3010 RMK AO2

TAF for FBL is not available.
TAF

KMSP - TAF AMD KMSP 282048Z 2821/2924 17010KT P6SM SCT035 BKN250

KMSP - FM290900 17006KT P6SM SCT010

KMSP - TEMPO 2909/2913 4SM BR BKN010

KMSP - FM291400 19010KT P6SM SCT030 BKN250 =

GlobalAir.com is loading additional information.
 Current Weather at FBL
84.0 F° (29.0 C°)
Mostly Cloudy
South winds at 9.2 mph
Pressure:
30.12 in
Humidity:
58%
Wind:
South at 9.2 MPH (8 KT)
Dew Point:
68.0 F° (20.0 C°)
Visibility:
10.00 mi
FBL NOAA Radar

Runway Summary

ID Dimensions Surface Instrument Approaches
12/30 75 ft x 4257 ft Asphalt, Good Condition RNAV (GPS) RWY 12
RNAV (GPS) RWY 12
RNAV (GPS) RWY 30
VOR-A
01/19 175 ft x 2300 ft Turf N/A

Communications Summary


CTAF122.80
UNICOM122.80
ATISN/A
WX AWOS-3
MINNEAPOLIS APPROACH134.7
MINNEAPOLIS DEPARTURE134.7
CLEARANCE DELIVERYN/A

Terminal Procedures Summary


Arrivals
Approaches
More Approaches
Special Minimums

Closest Alternate Airports with Instrument Procedures

KOWA - Owatonna Degner Regional - 14.3 nm SE from FBL

0MN1 - Mayo Clinic Health System - New Prague - 17.3 nm NW from FBL

KLVN - Airlake - 21.2 nm NE from FBL

KACQ - Waseca Municipal - 21.3 nm SW from FBL

KMKT - Mankato Regional - 31 nm SW from FBL

KTOB - Dodge Center - 32 nm SE from FBL

KFCM - Flying Cloud - 35.3 nm NW from FBL

KMSP - Minneapolis-St Paul International/Wold-Chamberlain - 38.6 nm NE from FBL

KSGS - South St Paul Municipal-Richard E Fleming Fld - 39.1 nm NE from FBL

KSTP - St Paul Downtown Holman Fld - 43.8 nm NE from FBL

Find All Airport Services Find A Hotel Find A Rental Car Find A Golf Course Find A Restaurant $100 Hamburger



FBO's on the Field
FBO Company Facility Photos Services Transportation Aviation Fuel Prices: Prices include tax
Catering Weather Repair Courtesy Rental Type 100LL JetA JetA+ MOGAS 8087
 
Quality Aviation

This FBO has not yet been rated
FS:Independent
Last Updated: Jul-22
Login to update fuel prices
SS:
Contact Quality AviationMore FBO Information
 
Add another FBO Facility Photos Catering Weather Repair Courtesy Rental Type 100LL JetA JetA+ MOGAS 8087
Services Transportation Aviation Fuel Prices: Prices include tax


model-print
model-print
model-print
model-print